createdAt,value
2019-05-15T00:01:28.690Z,97197.53
2019-05-15T00:03:59.222Z,97195.06
2019-05-15T00:06:29.822Z,97188.67
2019-05-15T00:09:00.349Z,97184.08
2019-05-15T00:11:30.913Z,97183.45
2019-05-15T00:14:01.520Z,97172.11
2019-05-15T00:16:32.041Z,97176.50
2019-05-15T00:19:02.597Z,97170.64
2019-05-15T00:21:34.346Z,97169.93
2019-05-15T00:24:04.899Z,97164.37
2019-05-15T00:26:35.476Z,97167.66
2019-05-15T00:29:14.683Z,97160.80
2019-05-15T00:31:38.874Z,97167.27
2019-05-15T00:34:12.833Z,97156.48
2019-05-15T00:36:41.871Z,97152.88
2019-05-15T00:39:12.432Z,97153.47
2019-05-15T00:41:53.312Z,97152.65
2019-05-15T00:44:15.304Z,97147.23
2019-05-15T00:46:45.939Z,97146.92
2019-05-15T00:49:18.765Z,97146.86
2019-05-15T00:51:48.938Z,97134.16
2019-05-15T00:54:19.487Z,97136.73
2019-05-15T00:56:51.109Z,97134.38
2019-05-15T00:59:26.608Z,97135.69
2019-05-15T01:01:54.970Z,97131.29
2019-05-15T01:04:25.425Z,97119.02
2019-05-15T01:06:56.071Z,97125.53
2019-05-15T01:09:26.389Z,97113.86
2019-05-15T01:11:58.676Z,97119.32
2019-05-15T01:14:28.994Z,97109.85
2019-05-15T01:16:59.432Z,97101.83
2019-05-15T01:19:29.801Z,97109.97
2019-05-15T01:22:00.308Z,97102.91
2019-05-15T01:24:30.737Z,97098.00
2019-05-15T01:27:01.230Z,97099.92
2019-05-15T01:29:41.888Z,97090.80
2019-05-15T01:32:03.819Z,97096.40
2019-05-15T01:34:34.111Z,97091.66
2019-05-15T01:37:04.529Z,97087.10
2019-05-15T01:39:34.921Z,97081.89
2019-05-15T01:42:05.350Z,97079.62
2019-05-15T01:44:35.757Z,97079.66
2019-05-15T01:47:08.391Z,97070.52
2019-05-15T01:49:38.574Z,97063.66
2019-05-15T01:52:08.899Z,97072.79
2019-05-15T01:54:39.338Z,97070.25
2019-05-15T01:57:09.777Z,97067.64
2019-05-15T01:59:53.699Z,97068.94
2019-05-15T02:02:12.361Z,97067.95
2019-05-15T02:04:42.798Z,97066.61
2019-05-15T02:07:13.122Z,97073.92
2019-05-15T02:09:43.510Z,97059.75
2019-05-15T02:12:13.954Z,97058.45
2019-05-15T02:14:44.434Z,97056.47
2019-05-15T02:17:14.845Z,97057.94
2019-05-15T02:19:45.219Z,97050.45
2019-05-15T02:22:15.644Z,97050.26
2019-05-15T02:24:48.138Z,97050.97
2019-05-15T02:27:18.807Z,97051.17
2019-05-15T02:29:49.553Z,97046.44
2019-05-15T02:32:20.061Z,97043.40
2019-05-15T02:34:50.501Z,97042.41
2019-05-15T02:37:20.979Z,97041.41
2019-05-15T02:39:51.373Z,97040.17
2019-05-15T02:42:21.744Z,97039.52
2019-05-15T02:44:52.239Z,97040.34
2019-05-15T02:47:22.551Z,97033.00
2019-05-15T02:49:52.937Z,97037.67
2019-05-15T02:52:23.345Z,97037.61
2019-05-15T02:54:53.777Z,97032.38
2019-05-15T02:57:24.185Z,97031.44
2019-05-15T02:59:54.592Z,97038.44
2019-05-15T03:02:25.073Z,97031.98
2019-05-15T03:04:55.418Z,97027.41
2019-05-15T03:07:25.963Z,97024.53
2019-05-15T03:10:00.010Z,97018.27
2019-05-15T03:12:29.323Z,97024.44
2019-05-15T03:15:00.112Z,97021.83
2019-05-15T03:17:30.604Z,97017.72
2019-05-15T03:20:00.918Z,97015.28
2019-05-15T03:22:31.910Z,97008.94
2019-05-15T03:25:02.341Z,97009.11
2019-05-15T03:27:34.897Z,97013.64
2019-05-15T03:30:05.350Z,97011.52
2019-05-15T03:32:43.605Z,97019.81
2019-05-15T03:35:14.447Z,97018.17
2019-05-15T03:37:41.281Z,97013.92
2019-05-15T03:40:12.079Z,97016.53
2019-05-15T03:42:42.609Z,97012.25
2019-05-15T03:45:13.114Z,97008.00
2019-05-15T03:47:43.553Z,97007.17
2019-05-15T03:50:14.102Z,97006.22
2019-05-15T03:52:44.545Z,97010.67
2019-05-15T03:55:14.946Z,97011.56
2019-05-15T03:57:45.372Z,97015.48
2019-05-15T04:00:19.307Z,97019.79
2019-05-15T04:02:48.823Z,97016.19
2019-05-15T04:05:19.952Z,97010.33
2019-05-15T04:07:50.508Z,97018.77
2019-05-15T04:10:22.450Z,97017.47
2019-05-15T04:12:52.984Z,97013.92
2019-05-15T04:15:23.496Z,97012.34
2019-05-15T04:17:53.989Z,97012.94
2019-05-15T04:20:24.471Z,97009.67
2019-05-15T04:22:54.918Z,97008.94
2019-05-15T04:25:29.462Z,97003.90
2019-05-15T04:28:01.416Z,97003.36
2019-05-15T04:30:31.830Z,97000.61
2019-05-15T04:33:02.314Z,96995.73
2019-05-15T04:35:32.761Z,96994.44
2019-05-15T04:38:03.273Z,96993.95
2019-05-15T04:40:33.642Z,96995.42
2019-05-15T04:43:04.019Z,96998.09
2019-05-15T04:45:35.442Z,96997.44
2019-05-15T04:48:09.503Z,97002.88
2019-05-15T04:50:40.100Z,96995.25
2019-05-15T04:53:11.171Z,96990.72
2019-05-15T04:55:41.530Z,96995.41
2019-05-15T04:58:12.002Z,97002.47
2019-05-15T05:00:53.537Z,97002.45
2019-05-15T05:03:24.132Z,97002.25
2019-05-15T05:05:54.557Z,96993.84
2019-05-15T05:08:25.182Z,96991.73
2019-05-15T05:10:58.835Z,97001.89
2019-05-15T05:13:28.742Z,96994.57
2019-05-15T05:15:59.443Z,96995.75
2019-05-15T05:18:30.056Z,96994.67
2019-05-15T05:21:03.066Z,96980.86
2019-05-15T05:23:33.792Z,96995.03
2019-05-15T05:26:04.568Z,96992.38
2019-05-15T05:28:35.238Z,96992.41
2019-05-15T05:31:08.423Z,96995.09
2019-05-15T05:33:41.422Z,97001.17
2019-05-15T05:36:12.108Z,96992.04
2019-05-15T05:38:42.556Z,96993.70
2019-05-15T05:41:13.497Z,97000.32
2019-05-15T05:43:44.374Z,97002.13
2019-05-15T05:46:15.294Z,97001.42
2019-05-15T05:48:46.067Z,96999.90
2019-05-15T05:51:18.964Z,96995.92
2019-05-15T05:53:49.309Z,96993.37
2019-05-15T05:56:19.741Z,96998.66
2019-05-15T05:58:50.458Z,96994.75
2019-05-15T06:01:20.830Z,96996.07
2019-05-15T06:03:51.420Z,96994.77
2019-05-15T06:06:21.768Z,96993.66
2019-05-15T06:08:52.215Z,96995.45
2019-05-15T06:11:22.661Z,97002.98
2019-05-15T06:13:53.142Z,97000.40
2019-05-15T06:16:23.544Z,97000.73
2019-05-15T06:18:54.058Z,97007.63
2019-05-15T06:21:24.464Z,97002.47
2019-05-15T06:23:56.326Z,96999.53
2019-05-15T06:26:28.277Z,97005.29
2019-05-15T06:28:58.805Z,97000.89
2019-05-15T06:31:29.220Z,97006.42
2019-05-15T06:33:59.633Z,97011.05
2019-05-15T06:36:30.135Z,97012.38
2019-05-15T06:39:00.515Z,97005.52
2019-05-15T06:41:33.830Z,97012.04
2019-05-15T06:44:02.932Z,97012.04
2019-05-15T06:46:33.809Z,97009.13
2019-05-15T06:49:04.301Z,97015.87
2019-05-15T06:51:34.748Z,97011.44
2019-05-15T06:54:05.276Z,97010.18
2019-05-15T06:56:35.588Z,97004.00
2019-05-15T06:59:08.583Z,97003.38
2019-05-15T07:01:38.668Z,97004.05
2019-05-15T07:04:09.255Z,97005.03
2019-05-15T07:06:39.489Z,97006.19
2019-05-15T07:09:28.951Z,97007.02
2019-05-15T07:11:59.291Z,97005.14
2019-05-15T07:14:29.746Z,97008.39
2019-05-15T07:17:00.265Z,97008.77
2019-05-15T07:19:30.743Z,97015.97
2019-05-15T07:22:01.139Z,97015.34
2019-05-15T07:24:31.633Z,97014.20
2019-05-15T07:27:02.031Z,97021.25
2019-05-15T07:29:32.398Z,97016.31
2019-05-15T07:32:02.753Z,97015.45
2019-05-15T07:34:33.876Z,97012.49
2019-05-15T07:37:04.316Z,97016.70
2019-05-15T07:39:34.717Z,97014.63
2019-05-15T07:42:05.078Z,97021.50
2019-05-15T07:44:35.498Z,97024.79
2019-05-15T07:47:05.858Z,97026.14
2019-05-15T07:49:38.637Z,97019.31
2019-05-15T07:52:08.807Z,97023.60
2019-05-15T07:54:40.361Z,97022.33
2019-05-15T07:57:10.805Z,97021.84
2019-05-15T07:59:41.239Z,97032.83
2019-05-15T08:02:11.792Z,97030.39
2019-05-15T08:04:42.112Z,97031.18
2019-05-15T08:07:12.550Z,97030.73
2019-05-15T08:09:43.028Z,97023.67
2019-05-15T08:12:13.438Z,97024.34
2019-05-15T08:14:43.858Z,97022.06
2019-05-15T08:17:14.178Z,97024.06
2019-05-15T08:19:48.703Z,97022.77
2019-05-15T08:22:19.253Z,97022.11
2019-05-15T08:24:49.765Z,97021.80
2019-05-15T08:27:23.298Z,97014.30
2019-05-15T08:29:52.384Z,97014.94
2019-05-15T08:32:22.761Z,97020.16
2019-05-15T08:34:53.116Z,97014.58
2019-05-15T08:37:23.544Z,97016.70
2019-05-15T08:39:53.937Z,97014.56
2019-05-15T08:42:24.232Z,97016.36
2019-05-15T08:44:54.674Z,97011.92
2019-05-15T08:47:25.241Z,97013.49
2019-05-15T08:49:57.891Z,97019.42
2019-05-15T08:52:28.295Z,97013.17
2019-05-15T08:54:59.341Z,97017.06
2019-05-15T08:57:29.684Z,97018.78
2019-05-15T09:00:00.236Z,97011.60
2019-05-15T09:02:30.697Z,97011.15
2019-05-15T09:05:01.114Z,97007.95
2019-05-15T09:07:31.506Z,96996.32
2019-05-15T09:10:01.958Z,96994.76
2019-05-15T09:12:32.430Z,96999.68
2019-05-15T09:15:02.856Z,96998.66
2019-05-15T09:17:33.301Z,96992.22
2019-05-15T09:20:03.870Z,96987.25
2019-05-15T09:22:34.495Z,96986.25
2019-05-15T09:25:05.354Z,96984.62
2019-05-15T09:27:38.107Z,96978.05
2019-05-15T09:30:08.862Z,96974.05
2019-05-15T09:32:39.581Z,96976.33
2019-05-15T09:35:10.844Z,96967.39
2019-05-15T09:37:41.287Z,96969.91
2019-05-15T09:40:11.977Z,96975.97
2019-05-15T09:42:42.374Z,96973.05
2019-05-15T09:45:13.097Z,96974.54
2019-05-15T09:47:43.499Z,96964.62
2019-05-15T09:50:14.072Z,96977.25
2019-05-15T09:52:44.569Z,96966.00
2019-05-15T09:55:17.894Z,96959.67
2019-05-15T09:57:49.143Z,96965.81
2019-05-15T10:00:21.829Z,96954.99
2019-05-15T10:02:52.238Z,96956.43
2019-05-15T10:05:22.822Z,96956.28
2019-05-15T10:07:53.450Z,96948.16
2019-05-15T10:10:24.036Z,96950.48
2019-05-15T10:12:54.328Z,96948.25
2019-05-15T10:15:24.708Z,96936.94
2019-05-15T10:17:55.121Z,96941.05
2019-05-15T10:20:25.561Z,96943.34
2019-05-15T10:22:55.898Z,96930.98
2019-05-15T10:25:28.155Z,96942.70
2019-05-15T10:27:58.704Z,96937.48
2019-05-15T10:30:29.197Z,96931.56
2019-05-15T10:32:59.597Z,96924.53
2019-05-15T10:35:31.796Z,96924.78
2019-05-15T10:38:02.129Z,96928.33
2019-05-15T10:40:32.601Z,96918.78
2019-05-15T10:43:03.580Z,96929.13
2019-05-15T10:45:34.034Z,96925.66
2019-05-15T10:48:04.530Z,96914.87
2019-05-15T10:50:34.961Z,96916.77
2019-05-15T10:53:05.689Z,96919.54
2019-05-15T10:55:39.370Z,96921.40
2019-05-15T10:58:14.158Z,96914.37
2019-05-15T11:00:40.606Z,96910.66
2019-05-15T11:03:10.984Z,96908.73
2019-05-15T11:05:45.566Z,96905.90
2019-05-15T11:08:13.608Z,96898.44
2019-05-15T11:10:44.355Z,96895.34
2019-05-15T11:13:14.802Z,96903.67
2019-05-15T11:15:45.150Z,96897.84
2019-05-15T11:18:15.561Z,96895.84
2019-05-15T11:20:48.301Z,96895.45
2019-05-15T11:23:19.954Z,96904.00
2019-05-15T11:25:50.267Z,96896.45
2019-05-15T11:28:20.732Z,96898.70
2019-05-15T11:30:51.117Z,96896.58
2019-05-15T11:33:21.434Z,96897.22
2019-05-15T11:36:01.144Z,96888.90
2019-05-15T11:38:23.865Z,96889.56
2019-05-15T11:40:54.350Z,96884.58
2019-05-15T11:43:24.706Z,96888.50
2019-05-15T11:45:55.045Z,96882.84
2019-05-15T11:48:25.537Z,96876.95
2019-05-15T11:50:55.932Z,96887.72
2019-05-15T11:53:28.438Z,96889.85
2019-05-15T11:55:59.913Z,96886.91
2019-05-15T11:58:30.414Z,96886.58
2019-05-15T12:01:00.906Z,96888.88
2019-05-15T12:03:31.361Z,96892.15
2019-05-15T12:06:14.842Z,96888.29
2019-05-15T12:08:34.020Z,96893.18
2019-05-15T12:11:04.376Z,96890.89
2019-05-15T12:13:34.822Z,96896.62
2019-05-15T12:16:05.253Z,96896.38
2019-05-15T12:18:35.695Z,96892.00
2019-05-15T12:21:06.084Z,96891.67
2019-05-15T12:23:38.788Z,96892.16
2019-05-15T12:26:09.198Z,96888.70
2019-05-15T12:28:40.519Z,96889.78
2019-05-15T12:31:11.405Z,96887.91
2019-05-15T12:33:41.792Z,96891.00
2019-05-15T12:36:12.259Z,96886.01
2019-05-15T12:38:42.709Z,96892.99
2019-05-15T13:01:49.472Z,96888.30
2019-05-15T13:04:20.101Z,96888.12
2019-05-15T13:07:11.772Z,96881.41
2019-05-15T13:09:22.743Z,96882.80
2019-05-15T13:11:53.122Z,96884.78
2019-05-15T13:14:23.570Z,96878.09
2019-05-15T13:16:54.024Z,96877.75
2019-05-15T13:19:24.446Z,96879.73
2019-05-15T13:21:54.961Z,96879.99
2019-05-15T13:24:28.175Z,96875.83
2019-05-15T13:26:58.393Z,96875.80
2019-05-15T13:29:29.138Z,96878.67
2019-05-15T13:31:59.725Z,96881.23
2019-05-15T13:34:30.878Z,96874.55
2019-05-15T13:37:01.532Z,96875.83
2019-05-15T13:39:32.002Z,96873.80
2019-05-15T13:42:02.404Z,96878.78
2019-05-15T13:44:34.139Z,96867.66
2019-05-15T13:47:04.628Z,96871.69
2019-05-15T13:49:35.123Z,96874.69
2019-05-15T13:52:05.536Z,96878.80
2019-05-15T13:54:37.959Z,96869.37
2019-05-15T13:57:08.840Z,96860.03
2019-05-15T13:59:39.444Z,96865.97
2019-05-15T14:02:09.856Z,96867.08
2019-05-15T14:04:40.323Z,96866.05
2019-05-15T14:07:10.784Z,96866.88
2019-05-15T14:09:44.970Z,96864.80
2019-05-15T14:12:15.428Z,96862.80
2019-05-15T14:14:45.941Z,96862.95
2019-05-15T14:17:16.458Z,96866.34
2019-05-15T14:19:48.579Z,96859.69
2019-05-15T14:22:19.241Z,96858.76
2019-05-15T14:24:49.705Z,96863.92
2019-05-15T14:27:20.182Z,96855.96
2019-05-15T14:29:50.596Z,96854.56
2019-05-15T14:32:34.548Z,96856.58
2019-05-15T14:34:53.438Z,96849.48
2019-05-15T14:37:23.856Z,96845.61
2019-05-15T14:39:54.345Z,96842.09
2019-05-15T14:42:24.896Z,96845.56
2019-05-15T14:44:55.642Z,96850.77
2019-05-15T14:47:26.505Z,96842.34
2019-05-15T14:49:58.360Z,96840.53
2019-05-15T14:52:29.412Z,96841.34
2019-05-15T14:55:00.002Z,96847.00
2019-05-15T14:57:31.053Z,96845.79
2019-05-15T15:00:01.466Z,96849.23
2019-05-15T15:02:32.421Z,96847.36
2019-05-15T15:05:02.972Z,96845.44
2019-05-15T15:07:33.440Z,96844.87
2019-05-15T15:10:04.758Z,96852.02
2019-05-15T15:12:35.388Z,96846.75
2019-05-15T15:15:09.671Z,96845.75
2019-05-15T15:17:39.185Z,96851.80
2019-05-15T15:20:10.978Z,96846.26
2019-05-15T15:22:42.094Z,96848.89
2019-05-15T15:25:12.709Z,96840.47
2019-05-15T15:27:43.217Z,96841.64
2019-05-15T15:30:15.813Z,96843.55
2019-05-15T15:32:48.824Z,96843.66
2019-05-15T15:35:18.547Z,96839.17
2019-05-15T15:37:49.462Z,96842.77
2019-05-15T15:40:20.746Z,96846.81
2019-05-15T15:42:51.151Z,96847.50
2019-05-15T15:45:21.929Z,96847.41
2019-05-15T15:47:52.281Z,96853.12
2019-05-15T15:50:22.829Z,96852.50
2019-05-15T15:52:53.349Z,96856.23
2019-05-15T15:55:23.860Z,96856.36
2019-05-15T15:57:54.358Z,96852.30
2019-05-15T16:00:28.694Z,96850.72
2019-05-15T16:02:58.467Z,96847.75
2019-05-15T16:05:29.230Z,96843.66
2019-05-15T16:08:00.105Z,96848.88
2019-05-15T16:10:30.665Z,96843.57
2019-05-15T16:13:01.576Z,96846.52
2019-05-15T16:15:32.115Z,96847.51
2019-05-15T16:18:02.517Z,96844.45
2019-05-15T16:20:32.981Z,96850.22
2019-05-15T16:23:03.366Z,96843.05
2019-05-15T16:25:33.963Z,96848.32
2019-05-15T16:28:04.492Z,96845.59
2019-05-15T16:30:48.159Z,96845.08
2019-05-15T16:33:09.526Z,96849.69
2019-05-15T16:35:40.767Z,96852.66
2019-05-15T16:38:11.531Z,96848.13
2019-05-15T16:40:42.315Z,96846.99
2019-05-15T16:43:13.069Z,96847.78
2019-05-15T16:45:43.522Z,96843.63
2019-05-15T16:48:13.964Z,96846.02
2019-05-15T16:50:44.471Z,96847.67
2019-05-15T16:53:15.263Z,96847.81
2019-05-15T16:55:47.912Z,96846.74
2019-05-15T16:58:19.160Z,96846.46
2019-05-15T17:00:49.850Z,96853.67
2019-05-15T17:03:20.348Z,96843.84
2019-05-15T17:05:50.791Z,96847.11
2019-05-15T17:08:21.325Z,96853.02
2019-05-15T17:10:51.788Z,96846.30
2019-05-15T17:13:22.262Z,96848.44
2019-05-15T17:15:52.730Z,96846.88
2019-05-15T17:18:23.176Z,96851.31
2019-05-15T17:20:53.576Z,96848.03
2019-05-15T17:23:24.104Z,96847.59
2019-05-15T17:25:54.836Z,96854.95
2019-05-15T17:28:25.150Z,96845.25
2019-05-15T17:30:58.216Z,96852.46
2019-05-15T17:33:29.078Z,96851.19
2019-05-15T17:35:59.736Z,96852.17
2019-05-15T17:38:30.205Z,96850.86
2019-05-15T17:41:00.877Z,96854.63
2019-05-15T17:43:31.298Z,96858.89
2019-05-15T17:46:01.730Z,96860.70
2019-05-15T17:48:32.297Z,96868.28
2019-05-15T17:51:03.159Z,96856.77
2019-05-15T17:53:33.632Z,96861.06
2019-05-15T17:56:04.148Z,96862.42
2019-05-15T17:58:34.589Z,96861.07
2019-05-15T18:01:05.201Z,96858.16
2019-05-15T18:03:35.695Z,96859.06
2019-05-15T18:06:06.236Z,96857.78
2019-05-15T18:08:39.062Z,96859.91
2019-05-15T18:11:09.377Z,96860.77
2019-05-15T18:13:39.924Z,96868.46
2019-05-15T18:16:13.676Z,96870.85
2019-05-15T18:18:42.792Z,96868.10
2019-05-15T18:21:13.469Z,96870.13
2019-05-15T18:23:44.155Z,96872.09
2019-05-15T18:26:14.722Z,96868.13
2019-05-15T18:28:45.219Z,96864.53
2019-05-15T18:31:18.063Z,96872.59
2019-05-15T18:33:53.797Z,96860.80
2019-05-15T18:36:20.437Z,96861.31
2019-05-15T18:38:50.907Z,96862.00
2019-05-15T18:41:21.406Z,96860.69
2019-05-15T18:43:51.887Z,96865.44
2019-05-15T18:46:22.348Z,96866.30
2019-05-15T18:48:52.916Z,96863.06
2019-05-15T18:51:24.013Z,96867.83
2019-05-15T18:53:54.514Z,96867.33
2019-05-15T18:56:25.657Z,96863.59
2019-05-15T18:58:57.837Z,96868.70
2019-05-15T19:01:28.961Z,96868.67
2019-05-15T19:03:59.688Z,96869.98
2019-05-15T19:06:30.180Z,96871.46
2019-05-15T19:09:01.001Z,96870.29
2019-05-15T19:11:32.761Z,96880.44
2019-05-15T19:14:03.205Z,96878.48
2019-05-15T19:16:33.684Z,96874.92
2019-05-15T19:19:04.141Z,96876.23
2019-05-15T19:21:34.556Z,96875.23
2019-05-15T19:24:05.195Z,96878.66
2019-05-15T19:26:35.668Z,96878.52
2019-05-15T19:29:08.331Z,96885.56
2019-05-15T19:31:41.841Z,96879.84
2019-05-15T19:34:12.933Z,96881.13
2019-05-15T19:36:43.373Z,96880.81
2019-05-15T19:39:14.019Z,96879.66
2019-05-15T19:41:44.472Z,96876.23
2019-05-15T19:44:14.879Z,96880.48
2019-05-15T19:46:47.876Z,96879.99
2019-05-15T19:49:17.928Z,96880.16
2019-05-15T19:51:48.885Z,96884.09
2019-05-15T19:54:19.343Z,96877.53
2019-05-15T19:56:49.888Z,96885.72
2019-05-15T19:59:22.342Z,96884.41
2019-05-15T20:01:52.860Z,96884.76
2019-05-15T20:04:23.662Z,96886.22
2019-05-15T20:06:56.661Z,96884.11
2019-05-15T20:09:27.823Z,96883.78
2019-05-15T20:11:59.014Z,96879.53
2019-05-15T20:14:29.924Z,96875.92
2019-05-15T20:17:02.253Z,96881.64
2019-05-15T20:19:38.099Z,96884.09
2019-05-15T20:22:08.190Z,96881.48
2019-05-15T20:24:38.494Z,96872.98
2019-05-15T20:27:08.832Z,96872.67
2019-05-15T20:29:39.141Z,96876.61
2019-05-15T20:32:10.589Z,96873.84
2019-05-15T20:34:40.968Z,96861.91
2019-05-15T20:37:11.271Z,96866.13
2019-05-15T20:39:41.684Z,96867.80
2019-05-15T20:42:12.086Z,96868.13
2019-05-15T20:44:42.632Z,96866.16
2019-05-15T20:47:13.089Z,96866.80
2019-05-15T20:49:44.059Z,96866.80
2019-05-15T20:52:14.822Z,96868.25
2019-05-15T20:54:45.251Z,96864.52
2019-05-15T20:57:15.674Z,96862.22
2019-05-15T20:59:47.971Z,96859.92
2019-05-15T21:02:18.804Z,96861.55
2019-05-15T21:04:49.363Z,96866.45
2019-05-15T21:07:34.450Z,96858.30
2019-05-15T21:09:51.903Z,96859.11
2019-05-15T21:12:26.375Z,96852.09
2019-05-15T21:14:58.120Z,96854.70
2019-05-15T21:17:28.462Z,96846.55
2019-05-15T21:20:01.163Z,96845.55
2019-05-15T21:22:30.923Z,96845.41
2019-05-15T21:25:01.347Z,96839.03
2019-05-15T21:27:33.128Z,96847.45
2019-05-15T21:30:04.146Z,96844.36
2019-05-15T21:32:34.484Z,96840.59
2019-05-15T21:35:04.934Z,96839.95
2019-05-15T21:37:35.305Z,96837.98
2019-05-15T21:40:08.140Z,96835.70
2019-05-15T21:42:41.519Z,96841.10
2019-05-15T21:45:14.581Z,96844.20
2019-05-15T21:47:44.381Z,96839.61
2019-05-15T21:50:15.935Z,96829.50
2019-05-15T21:52:49.080Z,96839.27
2019-05-15T21:55:18.936Z,96844.16
2019-05-15T21:57:49.568Z,96833.53
2019-05-15T22:00:31.637Z,96834.69
2019-05-15T22:03:02.033Z,96830.10
2019-05-15T22:05:32.815Z,96827.83
2019-05-15T22:08:03.254Z,96826.55
2019-05-15T22:10:33.723Z,96820.34
2019-05-15T22:13:06.125Z,96817.04
2019-05-15T22:15:36.665Z,96815.41
2019-05-15T22:18:08.643Z,96805.28
2019-05-15T22:20:40.064Z,96805.59
2019-05-15T22:23:10.449Z,96802.66
2019-05-15T22:25:41.241Z,96801.02
2019-05-15T22:28:11.747Z,96793.85
2019-05-15T22:30:42.516Z,96798.10
2019-05-15T22:33:12.928Z,96802.66
2019-05-15T22:35:43.356Z,96802.94
2019-05-15T22:38:13.807Z,96800.66
2019-05-15T22:40:44.606Z,96805.39
2019-05-15T22:43:15.072Z,96798.72
2019-05-15T22:45:48.160Z,96795.41
2019-05-15T22:48:18.325Z,96789.84
2019-05-15T22:50:48.815Z,96786.91
2019-05-15T22:53:19.201Z,96783.99
2019-05-15T22:55:50.018Z,96785.63
2019-05-15T22:58:20.544Z,96786.33
2019-05-15T23:00:50.993Z,96777.67
2019-05-15T23:03:21.421Z,96779.77
2019-05-15T23:05:51.781Z,96783.72
2019-05-15T23:08:22.133Z,96774.55
2019-05-15T23:10:52.757Z,96772.91
2019-05-15T23:13:23.211Z,96770.33
2019-05-15T23:15:53.671Z,96762.83
2019-05-15T23:18:24.097Z,96762.49
2019-05-15T23:20:54.505Z,96766.11
2019-05-15T23:23:24.958Z,96758.25
2019-05-15T23:25:55.376Z,96754.00
2019-05-15T23:28:28.029Z,96752.00
2019-05-15T23:30:58.829Z,96754.92
2019-05-15T23:33:29.209Z,96751.67
2019-05-15T23:35:59.542Z,96748.24
2019-05-15T23:38:29.949Z,96746.27
2019-05-15T23:41:00.393Z,96740.59
2019-05-15T23:43:30.789Z,96731.13
2019-05-15T23:46:01.260Z,96730.16
2019-05-15T23:48:31.690Z,96722.02
2019-05-15T23:51:02.174Z,96717.10
2019-05-15T23:53:32.643Z,96713.83
2019-05-15T23:56:22.040Z,96716.75
2019-05-15T23:58:52.423Z,96706.98
